Time;durP1;ratioP1;P1;durP2;ratioP2;P2;SDS_P1;SDS_P2;PMS_P1;PMS_P2;Temp;Humidity;BMP_temperature;BMP_pressure;BME280_temperature;BME280_humidity;BME280_pressure;Samples;Min_cycle;Max_cycle;Signal;HPM_P1;HPM_P2
2022/03/28 00:01:36;;;;;;;19.38;3.97;;;8.20;99.90;;;;;;4926162;29;20075;-81
2022/03/28 00:04:03;;;;;;;22.55;4.00;;;8.20;99.90;;;;;;4940204;29;20035;-81
2022/03/28 00:06:30;;;;;;;19.63;5.00;;;8.10;99.90;;;;;;4916389;29;20036;-80
2022/03/28 00:08:56;;;;;;;32.33;5.38;;;8.10;99.90;;;;;;4922315;29;20059;-80
2022/03/28 00:11:23;;;;;;;20.80;4.55;;;8.10;99.90;;;;;;4916214;29;20906;-80
2022/03/28 00:13:49;;;;;;;26.40;4.68;;;8.10;99.90;;;;;;4907191;29;20418;-80
2022/03/28 00:16:16;;;;;;;28.88;4.93;;;8.00;99.90;;;;;;4909242;29;20051;-81
2022/03/28 00:18:42;;;;;;;18.42;4.22;;;8.00;99.90;;;;;;4942570;29;20388;-80
2022/03/28 00:21:09;;;;;;;31.25;5.25;;;8.00;99.90;;;;;;4935465;29;20039;-80
2022/03/28 00:23:35;;;;;;;31.60;4.75;;;8.00;99.90;;;;;;4912451;29;20043;-80
2022/03/28 00:26:02;;;;;;;22.33;4.15;;;7.90;99.90;;;;;;4910905;29;20407;-81
2022/03/28 00:28:28;;;;;;;22.88;4.40;;;7.90;99.90;;;;;;4929787;29;20517;-80
2022/03/28 00:30:55;;;;;;;31.45;4.05;;;7.90;99.90;;;;;;4925636;29;20479;-81
2022/03/28 00:33:21;;;;;;;21.65;4.50;;;7.90;99.90;;;;;;4926847;29;20035;-81
2022/03/28 00:35:48;;;;;;;18.58;3.70;;;7.80;99.90;;;;;;4914792;29;20047;-81
2022/03/28 00:38:22;;;;;;;31.05;5.13;;;7.80;99.90;;;;;;4910161;29;20051;-80
2022/03/28 00:40:52;;;;;;;23.13;3.90;;;7.80;99.90;;;;;;4928136;29;20043;-80
2022/03/28 00:43:18;;;;;;;21.85;3.85;;;7.70;99.90;;;;;;4941042;29;20096;-81
2022/03/28 00:45:46;;;;;;;22.27;4.13;;;7.70;99.90;;;;;;4941058;29;20138;-81
2022/03/28 00:48:16;;;;;;;27.05;4.82;;;7.70;99.90;;;;;;4929916;29;20039;-81
2022/03/28 00:50:43;;;;;;;27.33;5.15;;;7.60;99.90;;;;;;4934613;29;20044;-80
2022/03/28 00:53:13;;;;;;;22.02;4.10;;;7.60;99.90;;;;;;4941684;29;21521;-80
2022/03/28 00:55:43;;;;;;;23.13;4.82;;;7.60;99.90;;;;;;4920842;28;20044;-80
2022/03/28 00:58:13;;;;;;;22.98;3.70;;;7.60;99.90;;;;;;4937005;29;20058;-80
2022/03/28 01:00:43;;;;;;;27.52;4.85;;;7.50;99.90;;;;;;4951967;28;20661;-79
2022/03/28 01:03:09;;;;;;;25.50;4.55;;;7.50;99.90;;;;;;4933857;28;20042;-79
2022/03/28 01:05:37;;;;;;;34.58;5.30;;;7.50;99.90;;;;;;4938742;28;20078;-78
2022/03/28 01:08:06;;;;;;;17.17;3.78;;;7.50;99.90;;;;;;4948992;28;20043;-79
2022/03/28 01:10:34;;;;;;;27.10;5.20;;;7.50;99.90;;;;;;4944597;28;20043;-78
2022/03/28 01:13:02;;;;;;;29.95;5.35;;;7.50;99.90;;;;;;4943801;28;20027;-78
2022/03/28 01:15:30;;;;;;;24.38;5.00;;;7.40;99.90;;;;;;4941734;28;20043;-80
2022/03/28 01:18:06;;;;;;;32.92;6.07;;;7.40;99.90;;;;;;4949415;28;20030;-80
2022/03/28 01:20:40;;;;;;;20.48;3.80;;;7.40;99.90;;;;;;4948405;28;20379;-80
2022/03/28 01:23:07;;;;;;;;;;;7.30;99.90;;;;;;4948514;28;20039;-80
2022/03/28 01:25:35;;;;;;;23.95;4.35;;;7.30;99.90;;;;;;4947373;28;20279;-80
2022/03/28 01:28:03;;;;;;;19.95;4.07;;;7.30;99.90;;;;;;4934312;28;20491;-81
2022/03/28 01:30:34;;;;;;;21.08;4.28;;;7.30;99.90;;;;;;4936861;28;20051;-80
2022/03/28 01:33:04;;;;;;;19.92;3.75;;;7.20;99.90;;;;;;4931464;28;20032;-80
2022/03/28 01:35:36;;;;;;;24.15;4.32;;;7.20;99.90;;;;;;4931460;28;20056;-80
2022/03/28 01:38:05;;;;;;;25.55;5.13;;;7.20;99.90;;;;;;4946873;28;20031;-81
2022/03/28 01:40:33;;;;;;;33.85;6.10;;;7.20;99.90;;;;;;4934468;28;20035;-81
2022/03/28 01:43:00;;;;;;;24.85;5.35;;;7.10;99.90;;;;;;4948685;28;20039;-82
2022/03/28 01:45:26;;;;;;;24.92;4.78;;;7.10;99.90;;;;;;4945414;28;20050;-78
2022/03/28 01:47:53;;;;;;;16.60;3.72;;;7.10;99.90;;;;;;4924433;28;20043;-79
2022/03/28 01:50:20;;;;;;;21.40;4.50;;;7.10;99.90;;;;;;4908372;28;20414;-78
2022/03/28 01:52:47;;;;;;;27.13;4.47;;;7.10;99.90;;;;;;4930763;28;20050;-78
2022/03/28 01:55:14;;;;;;;21.60;4.55;;;7.00;99.90;;;;;;4905277;28;20040;-78
2022/03/28 01:57:43;;;;;;;22.30;5.27;;;7.00;99.90;;;;;;4951271;28;20051;-80
2022/03/28 02:00:32;;;;;;;35.22;6.80;;;7.00;99.90;;;;;;4936673;29;20031;-80
2022/03/28 02:02:59;;;;;;;26.13;6.60;;;7.00;99.90;;;;;;4936377;29;20043;-80
2022/03/28 02:05:25;;;;;;;29.52;5.55;;;6.90;99.90;;;;;;4922665;29;20039;-80
2022/03/28 02:07:52;;;;;;;24.92;5.07;;;6.90;99.90;;;;;;4926310;29;20051;-80
2022/03/28 02:10:20;;;;;;;26.85;5.82;;;6.90;99.90;;;;;;4935978;29;20568;-81
2022/03/28 02:12:47;;;;;;;26.42;5.97;;;6.90;99.90;;;;;;4950539;29;20031;-80
2022/03/28 02:15:14;;;;;;;28.65;6.22;;;6.80;99.90;;;;;;4940537;28;20039;-80
2022/03/28 02:17:40;;;;;;;28.60;6.37;;;6.80;99.90;;;;;;4951604;29;20044;-80
2022/03/28 02:20:08;;;;;;;26.40;6.20;;;6.80;99.90;;;;;;4952944;29;20031;-80
2022/03/28 02:22:36;;;;;;;26.60;6.10;;;6.80;99.90;;;;;;4921926;29;20163;-80
2022/03/28 02:25:05;;;;;;;26.23;6.35;;;6.70;99.90;;;;;;4951124;28;20035;-80
2022/03/28 02:27:32;;;;;;;32.17;7.15;;;6.70;99.90;;;;;;4936183;29;20031;-80
2022/03/28 02:29:58;;;;;;;32.50;7.97;;;6.60;99.90;;;;;;4945432;28;20043;-81
2022/03/28 02:32:25;;;;;;;25.27;5.30;;;6.60;99.90;;;;;;4935349;29;20042;-81
2022/03/28 02:34:51;;;;;;;22.00;5.85;;;6.60;99.90;;;;;;4933287;29;20133;-80
2022/03/28 02:37:18;;;;;;;27.23;5.90;;;6.60;99.90;;;;;;4951868;29;20039;-80
2022/03/28 02:39:44;;;;;;;21.92;5.35;;;6.60;99.90;;;;;;4952552;29;20061;-81
2022/03/28 02:42:11;;;;;;;26.75;5.80;;;6.50;99.90;;;;;;4938154;29;20035;-80
2022/03/28 02:44:37;;;;;;;28.63;6.53;;;6.50;99.90;;;;;;4919536;28;20055;-80
2022/03/28 02:47:04;;;;;;;19.00;5.23;;;6.50;99.90;;;;;;4948924;28;20475;-80
2022/03/28 02:49:31;;;;;;;25.30;5.80;;;6.50;99.90;;;;;;4952406;29;20043;-80
2022/03/28 02:51:57;;;;;;;26.17;6.13;;;6.40;99.90;;;;;;4937248;29;20062;-80
2022/03/28 02:54:24;;;;;;;26.93;6.77;;;6.40;99.90;;;;;;4937880;28;20050;-80
2022/03/28 02:56:53;;;;;;;28.02;7.40;;;6.40;99.90;;;;;;4922775;29;20844;-80
2022/03/28 02:59:19;;;;;;;19.13;5.53;;;6.30;99.90;;;;;;4918724;29;20345;-80
2022/03/28 03:01:48;;;;;;;28.77;6.43;;;6.30;99.90;;;;;;4951520;29;20039;-80
2022/03/28 03:04:14;;;;;;;18.53;5.90;;;6.20;99.90;;;;;;4951833;28;20066;-80
2022/03/28 03:06:41;;;;;;;30.85;7.07;;;6.20;99.90;;;;;;4935385;29;20055;-80
2022/03/28 03:09:07;;;;;;;26.77;8.13;;;6.10;99.90;;;;;;4946927;29;20031;-80
2022/03/28 03:11:33;;;;;;;18.17;5.57;;;6.10;99.90;;;;;;4943400;29;20082;-81
2022/03/28 03:14:00;;;;;;;25.00;6.43;;;6.10;99.90;;;;;;4937784;29;20035;-81
2022/03/28 03:16:26;;;;;;;23.93;7.03;;;6.10;99.90;;;;;;4933688;29;20393;-80
2022/03/28 03:18:53;;;;;;;34.78;6.97;;;6.10;99.90;;;;;;4920297;29;20040;-81
2022/03/28 03:21:22;;;;;;;22.10;5.87;;;6.00;99.90;;;;;;4937258;29;20043;-79
2022/03/28 03:23:48;;;;;;;26.13;6.77;;;6.00;99.90;;;;;;4950772;28;20032;-79
2022/03/28 03:26:15;;;;;;;23.80;7.05;;;6.00;99.90;;;;;;4920941;29;20047;-78
2022/03/28 03:28:41;;;;;;;19.57;5.87;;;6.00;99.90;;;;;;4935642;29;20035;-78
2022/03/28 03:31:07;;;;;;;21.33;7.17;;;5.90;99.90;;;;;;4934522;29;20134;-78
2022/03/28 03:33:34;;;;;;;24.77;5.93;;;6.00;99.90;;;;;;4936169;29;20035;-78
2022/03/28 03:36:01;;;;;;;18.33;5.70;;;5.90;99.90;;;;;;4932731;29;20058;-79
2022/03/28 03:38:28;;;;;;;17.23;7.20;;;5.90;99.90;;;;;;4937375;29;20396;-78
2022/03/28 03:40:54;;;;;;;22.80;8.07;;;5.90;99.90;;;;;;4934679;29;20039;-78
2022/03/28 03:43:22;;;;;;;22.27;6.67;;;5.90;99.90;;;;;;4919968;29;20035;-78
2022/03/28 03:45:48;;;;;;;19.00;5.88;;;5.90;99.90;;;;;;4931954;29;20055;-78
2022/03/28 03:48:15;;;;;;;25.50;7.55;;;5.80;99.90;;;;;;4934225;29;20391;-78
2022/03/28 03:50:41;;;;;;;17.80;5.70;;;5.80;99.90;;;;;;4934496;29;20399;-78
2022/03/28 03:53:08;;;;;;;22.43;7.37;;;5.80;99.90;;;;;;4919548;29;20094;-79
2022/03/28 03:55:34;;;;;;;19.10;6.22;;;5.80;99.90;;;;;;4911525;29;21461;-78
2022/03/28 03:58:01;;;;;;;16.30;6.00;;;5.80;99.90;;;;;;4938467;29;20063;-79
2022/03/28 04:00:28;;;;;;;14.70;6.28;;;5.70;99.90;;;;;;4936471;29;20031;-79
2022/03/28 04:02:54;;;;;;;20.73;7.03;;;5.70;99.90;;;;;;4921050;29;20039;-78
2022/03/28 04:05:20;;;;;;;20.97;7.00;;;5.70;99.90;;;;;;4922412;29;20047;-78
2022/03/28 04:07:47;;;;;;;18.90;5.37;;;5.60;99.90;;;;;;4921072;29;20047;-78
2022/03/28 04:10:13;;;;;;;13.47;6.00;;;5.60;99.90;;;;;;4909890;29;20039;-79
2022/03/28 04:12:40;;;;;;;12.23;5.10;;;5.60;99.90;;;;;;4936291;29;20055;-78
2022/03/28 04:15:07;;;;;;;12.07;5.63;;;5.60;99.90;;;;;;4917280;29;20051;-78
2022/03/28 04:17:43;;;;;;;16.10;5.63;;;5.60;99.90;;;;;;4916704;29;20039;-78
2022/03/28 04:20:15;;;;;;;15.88;6.75;;;5.50;99.90;;;;;;4935395;29;20043;-78
2022/03/28 04:22:42;;;;;;;20.30;6.67;;;5.50;99.90;;;;;;4934993;29;20601;-78
2022/03/28 04:25:10;;;;;;;17.20;6.93;;;5.50;99.90;;;;;;4935288;29;20373;-78
2022/03/28 04:27:37;;;;;;;13.20;6.20;;;5.50;99.90;;;;;;4918765;29;20050;-79
2022/03/28 04:30:09;;;;;;;15.93;5.87;;;5.40;99.90;;;;;;4908832;29;20051;-79
2022/03/28 04:32:36;;;;;;;16.00;5.57;;;5.40;99.90;;;;;;4935006;29;20036;-78
2022/03/28 04:35:04;;;;;;;15.23;6.30;;;5.40;99.90;;;;;;4936913;29;20475;-78
2022/03/28 04:37:38;;;;;;;14.73;5.33;;;5.40;99.90;;;;;;4915653;29;20471;-83
2022/03/28 04:40:08;;;;;;;14.07;5.10;;;5.40;99.90;;;;;;4902929;29;20034;-78
2022/03/28 04:42:35;;;;;;;12.47;5.47;;;5.40;99.90;;;;;;4934668;29;20024;-80
2022/03/28 04:45:02;;;;;;;14.63;6.83;;;5.30;99.90;;;;;;4913416;29;20066;-78
2022/03/28 04:47:29;;;;;;;16.93;7.03;;;5.30;99.90;;;;;;4932647;29;20034;-78
2022/03/28 04:49:56;;;;;;;17.33;8.63;;;5.30;99.90;;;;;;4933845;29;20563;-79
2022/03/28 04:52:23;;;;;;;20.50;10.27;;;5.30;99.90;;;;;;4935584;29;20028;-78
2022/03/28 04:54:49;;;;;;;29.03;15.20;;;5.30;99.90;;;;;;4921210;29;20044;-79
2022/03/28 04:57:16;;;;;;;19.23;8.90;;;5.20;99.90;;;;;;4916901;29;20044;-78
2022/03/28 04:59:42;;;;;;;18.07;8.70;;;5.20;99.90;;;;;;4934653;29;20050;-78
2022/03/28 05:02:09;;;;;;;20.30;8.40;;;5.10;99.90;;;;;;4919094;29;20032;-89
2022/03/28 05:04:35;;;;;;;15.40;7.13;;;5.10;99.90;;;;;;4920678;29;20475;-83
2022/03/28 05:07:02;;;;;;;14.63;6.90;;;5.00;99.90;;;;;;4933959;29;20399;-82
2022/03/28 05:09:28;;;;;;;20.53;8.43;;;5.00;99.90;;;;;;4917596;29;20048;-80
2022/03/28 05:11:55;;;;;;;16.30;7.60;;;5.00;99.90;;;;;;4934970;29;20032;-80
2022/03/28 05:14:22;;;;;;;29.10;11.57;;;4.90;99.90;;;;;;4909917;29;20058;-80
2022/03/28 05:16:49;;;;;;;23.13;11.20;;;4.90;99.90;;;;;;4932942;29;20388;-81
2022/03/28 05:19:16;;;;;;;52.13;24.63;;;4.90;99.90;;;;;;4936362;29;20049;-87
2022/03/28 05:21:43;;;;;;;28.43;13.60;;;4.90;99.90;;;;;;4906612;29;20040;-81
2022/03/28 05:24:09;;;;;;;21.53;10.53;;;4.80;99.90;;;;;;4926379;29;20036;-81
2022/03/28 05:26:35;;;;;;;16.33;8.67;;;4.80;99.90;;;;;;4930305;29;20495;-81
2022/03/28 05:29:02;;;;;;;15.73;6.97;;;4.90;99.90;;;;;;4908928;29;20373;-81
2022/03/28 05:31:28;;;;;;;13.10;6.47;;;4.90;99.90;;;;;;4912887;29;20039;-81
2022/03/28 05:33:55;;;;;;;14.50;6.77;;;4.90;99.90;;;;;;4935417;29;20040;-81
2022/03/28 05:36:21;;;;;;;15.40;6.00;;;4.80;99.90;;;;;;4918326;29;20042;-81
2022/03/28 05:38:48;;;;;;;11.43;5.70;;;4.80;99.90;;;;;;4933008;29;20050;-82
2022/03/28 05:41:14;;;;;;;13.87;6.27;;;4.80;99.90;;;;;;4932699;29;20044;-81
2022/03/28 05:43:41;;;;;;;13.80;7.20;;;4.80;99.90;;;;;;4927509;29;20102;-81
2022/03/28 05:46:07;;;;;;;14.97;7.57;;;4.80;99.90;;;;;;4915744;29;20055;-87
2022/03/28 05:48:34;;;;;;;13.57;6.07;;;4.80;99.90;;;;;;4927816;29;20056;-84
2022/03/28 05:51:01;;;;;;;9.43;5.77;;;4.80;99.90;;;;;;4924846;29;20403;-86
2022/03/28 05:53:29;;;;;;;9.83;5.40;;;4.80;99.90;;;;;;4907903;29;20040;-81
2022/03/28 05:55:56;;;;;;;17.47;9.23;;;4.80;99.90;;;;;;4947293;28;20043;-81
2022/03/28 05:58:23;;;;;;;13.53;8.97;;;4.80;99.90;;;;;;4875426;29;20040;-81
2022/03/28 06:00:49;;;;;;;12.37;7.17;;;4.80;99.90;;;;;;4914209;29;20511;-81
2022/03/28 06:03:16;;;;;;;12.77;6.80;;;4.80;99.90;;;;;;4931895;29;20036;-82
2022/03/28 06:05:42;;;;;;;16.77;7.93;;;4.90;99.90;;;;;;4895730;29;20048;-82
2022/03/28 06:08:10;;;;;;;11.40;6.30;;;4.90;99.90;;;;;;4901900;29;20044;-82
2022/03/28 06:10:37;;;;;;;9.03;5.90;;;4.90;99.90;;;;;;4901775;29;20059;-81
2022/03/28 06:13:03;;;;;;;8.33;4.77;;;5.00;99.90;;;;;;4917080;29;20384;-81
2022/03/28 06:15:36;;;;;;;9.60;6.03;;;5.00;99.90;;;;;;4929704;29;20044;-80
2022/03/28 06:18:04;;;;;;;8.67;4.57;;;5.00;99.90;;;;;;4871985;29;20031;-80
2022/03/28 06:20:32;;;;;;;10.57;5.93;;;5.00;99.90;;;;;;4917634;29;20028;-80
2022/03/28 06:23:02;;;;;;;7.30;4.43;;;5.10;99.90;;;;;;4915589;29;20059;-81
2022/03/28 06:25:29;;;;;;;9.63;6.13;;;5.10;99.90;;;;;;4901769;29;20051;-81
2022/03/28 06:27:56;;;;;;;10.13;4.80;;;5.20;99.90;;;;;;4930324;29;20047;-82
2022/03/28 06:30:23;;;;;;;10.53;6.20;;;5.30;99.90;;;;;;4901707;29;20492;-82
2022/03/28 06:32:49;;;;;;;11.67;6.03;;;5.40;99.90;;;;;;4903224;29;20039;-82
2022/03/28 06:35:18;;;;;;;7.40;4.73;;;5.50;99.90;;;;;;4917609;29;20403;-84
2022/03/28 06:37:45;;;;;;;8.37;5.43;;;5.60;99.90;;;;;;4919439;29;20032;-82
2022/03/28 06:40:12;;;;;;;18.63;12.40;;;5.70;99.90;;;;;;4914799;29;20024;-81
2022/03/28 06:42:39;;;;;;;18.87;10.33;;;5.80;99.90;;;;;;4931031;29;20392;-82
2022/03/28 06:45:10;;;;;;;10.60;6.80;;;5.90;99.90;;;;;;4902866;29;20031;-81
2022/03/28 06:47:45;;;;;;;10.60;7.03;;;6.00;99.90;;;;;;4902919;29;20031;-80
2022/03/28 06:50:14;;;;;;;9.33;5.47;;;6.10;99.90;;;;;;4901035;29;20492;-80
2022/03/28 06:52:41;;;;;;;9.05;4.90;;;6.30;99.90;;;;;;4928640;29;20043;-80
2022/03/28 06:55:07;;;;;;;7.10;4.57;;;6.40;99.90;;;;;;4920606;29;20520;-80
2022/03/28 06:57:38;;;;;;;9.57;4.57;;;6.50;99.90;;;;;;4940524;28;20047;-81
2022/03/28 07:00:06;;;;;;;6.68;4.15;;;6.60;99.90;;;;;;4944026;29;20043;-80
2022/03/28 07:02:33;;;;;;;8.88;5.80;;;6.60;99.90;;;;;;4917530;28;20027;-80
2022/03/28 07:04:59;;;;;;;8.88;5.70;;;6.70;99.90;;;;;;4929855;29;20039;-80
2022/03/28 07:07:26;;;;;;;8.77;5.63;;;6.90;99.90;;;;;;4949370;28;20066;-80
2022/03/28 07:09:52;;;;;;;9.60;5.83;;;7.00;99.90;;;;;;4932768;29;20043;-80
2022/03/28 07:12:19;;;;;;;10.13;6.43;;;7.10;99.90;;;;;;4922178;29;20039;-80
2022/03/28 07:14:45;;;;;;;11.70;6.38;;;7.30;99.90;;;;;;4927786;29;20051;-80
2022/03/28 07:17:12;;;;;;;10.40;5.63;;;7.40;99.90;;;;;;4930111;29;20050;-81
2022/03/28 07:19:38;;;;;;;13.60;7.75;;;7.50;99.90;;;;;;4927077;29;20040;-81
2022/03/28 07:22:05;;;;;;;16.30;6.82;;;7.70;99.90;;;;;;4947086;29;20058;-80
2022/03/28 07:24:31;;;;;;;11.35;7.47;;;7.70;99.90;;;;;;4945303;29;20039;-81
2022/03/28 07:26:58;;;;;;;13.57;7.22;;;7.80;99.90;;;;;;4932164;29;20483;-80
2022/03/28 07:29:24;;;;;;;11.63;7.03;;;7.80;99.90;;;;;;4929777;29;20039;-80
2022/03/28 07:31:52;;;;;;;10.07;6.38;;;8.00;99.90;;;;;;4953360;28;20043;-79
2022/03/28 07:34:32;;;;;;;8.63;5.90;;;8.10;99.90;;;;;;4947258;29;20043;-82
2022/03/28 07:37:06;;;;;;;8.43;6.05;;;8.20;99.90;;;;;;4955559;28;20042;-84
2022/03/28 07:39:57;;;;;;;9.95;6.30;;;8.40;99.90;;;;;;4920577;28;20039;-86
2022/03/28 07:42:23;;;;;;;10.15;6.93;;;8.50;99.90;;;;;;4944596;29;20035;-84
2022/03/28 07:44:55;;;;;;;12.13;7.18;;;8.50;99.90;;;;;;4954045;28;20039;-83
2022/03/28 07:47:23;;;;;;;11.50;6.95;;;8.70;99.90;;;;;;4953802;28;20039;-82
2022/03/28 07:49:50;;;;;;;10.05;6.50;;;8.80;99.90;;;;;;4952318;29;20072;-85
2022/03/28 07:52:17;;;;;;;9.70;6.30;;;8.90;99.90;;;;;;4926760;29;20414;-84
2022/03/28 07:54:44;;;;;;;10.43;7.18;;;8.90;99.90;;;;;;4953702;28;20039;-81
2022/03/28 07:57:13;;;;;;;12.10;6.72;;;9.10;99.90;;;;;;4947652;28;20044;-82
2022/03/28 07:59:42;;;;;;;13.88;6.90;;;9.30;99.90;;;;;;4942922;28;20027;-80
2022/03/28 08:02:10;;;;;;;9.50;6.35;;;9.50;99.90;;;;;;4946662;28;20495;-83
2022/03/28 08:04:36;;;;;;;11.32;6.65;;;9.60;99.90;;;;;;4925919;28;20929;-80
2022/03/28 08:07:05;;;;;;;11.27;7.28;;;9.70;99.90;;;;;;4943738;28;20035;-80
2022/03/28 08:09:32;;;;;;;12.82;7.78;;;9.90;99.90;;;;;;4928445;28;20031;-80
2022/03/28 08:11:59;;;;;;;15.50;9.18;;;10.00;99.90;;;;;;4938631;29;20378;-84
2022/03/28 08:14:27;;;;;;;17.35;11.43;;;10.10;99.90;;;;;;4938049;28;20039;-82
2022/03/28 08:16:57;;;;;;;11.75;8.50;;;10.20;99.90;;;;;;4929026;28;20031;-82
2022/03/28 08:19:24;;;;;;;13.18;7.85;;;10.30;99.90;;;;;;4922506;28;20027;-81
2022/03/28 08:21:51;;;;;;;12.88;7.15;;;10.40;99.90;;;;;;4912746;28;20035;-82
2022/03/28 08:24:18;;;;;;;9.10;6.82;;;10.50;99.90;;;;;;4939826;28;20050;-80
2022/03/28 08:26:49;;;;;;;10.68;6.95;;;10.70;99.90;;;;;;4955651;28;20031;-81
2022/03/28 08:29:16;;;;;;;8.95;5.97;;;10.90;99.90;;;;;;4950297;28;20035;-80
2022/03/28 08:31:42;;;;;;;11.75;7.28;;;11.10;99.90;;;;;;4939102;28;20046;-81
2022/03/28 08:34:09;;;;;;;11.15;7.18;;;11.30;99.90;;;;;;4943021;28;20041;-83
2022/03/28 08:36:36;;;;;;;12.18;7.15;;;11.40;99.90;;;;;;4936367;28;20392;-82
2022/03/28 08:39:04;;;;;;;10.15;6.30;;;11.50;99.90;;;;;;4961992;28;20038;-82
2022/03/28 08:41:33;;;;;;;8.88;7.03;;;11.70;99.90;;;;;;4942459;28;20042;-83
2022/03/28 08:44:00;;;;;;;9.75;6.88;;;11.80;99.90;;;;;;4955508;28;20038;-82
2022/03/28 08:46:31;;;;;;;9.93;6.57;;;11.80;99.90;;;;;;4946158;28;20038;-82
2022/03/28 08:48:59;;;;;;;10.48;6.90;;;11.80;99.90;;;;;;4936809;28;20054;-82
2022/03/28 08:51:27;;;;;;;8.15;6.50;;;11.90;99.90;;;;;;4946371;28;20039;-83
2022/03/28 08:53:55;;;;;;;10.00;7.40;;;11.90;99.90;;;;;;4919257;28;20036;-83
2022/03/28 08:56:22;;;;;;;11.98;7.38;;;12.00;99.90;;;;;;4920647;29;20047;-82
2022/03/28 08:58:49;;;;;;;11.13;6.28;;;12.10;99.90;;;;;;4930079;29;20043;-82
2022/03/28 09:01:18;;;;;;;9.32;6.63;;;12.20;99.90;;;;;;4928719;29;20035;-81
2022/03/28 09:03:49;;;;;;;10.13;6.95;;;12.30;99.90;;;;;;4953464;28;20047;-81
2022/03/28 09:06:33;;;;;;;8.73;6.95;;;12.40;99.90;;;;;;4941750;29;20042;-81
2022/03/28 09:09:12;;;;;;;9.40;6.30;;;12.50;99.90;;;;;;4928316;28;20039;-78
2022/03/28 09:11:39;;;;;;;9.52;8.02;;;12.70;99.90;;;;;;4949054;29;20046;-82
2022/03/28 09:14:06;;;;;;;8.75;7.22;;;12.70;99.90;;;;;;4924576;29;20051;-80
2022/03/28 09:16:34;;;;;;;10.43;8.65;;;12.80;99.90;;;;;;4905122;29;20046;-81
2022/03/28 09:19:08;;;;;;;10.75;7.68;;;12.90;99.90;;;;;;4928950;29;20043;-81
2022/03/28 09:21:34;;;;;;;11.55;8.40;;;13.00;99.90;;;;;;4924754;29;20043;-82
2022/03/28 09:24:04;;;;;;;14.85;10.32;;;13.10;99.90;;;;;;4939794;29;20469;-81
2022/03/28 09:26:31;;;;;;;11.35;8.18;;;13.20;99.90;;;;;;4920835;29;20046;-80
2022/03/28 09:29:00;;;;;;;13.23;9.05;;;13.30;99.90;;;;;;4946497;28;20355;-80
2022/03/28 09:31:35;;;;;;;13.13;10.13;;;13.30;99.90;;;;;;4936143;29;20360;-80
2022/03/28 09:34:12;;;;;;;12.90;9.38;;;13.30;99.90;;;;;;4936309;29;20042;-80
2022/03/28 09:36:45;;;;;;;12.18;8.80;;;13.30;99.90;;;;;;4938263;29;20028;-79
2022/03/28 09:39:23;;;;;;;10.75;8.02;;;13.40;99.90;;;;;;4949277;29;20034;-80
2022/03/28 09:42:06;;;;;;;9.65;7.93;;;13.50;99.90;;;;;;4955376;28;20066;-79
2022/03/28 09:44:53;;;;;;;12.15;8.48;;;13.70;99.90;;;;;;4941104;28;20036;-78
2022/03/28 09:47:22;;;;;;;13.40;8.60;;;13.80;99.90;;;;;;4950905;29;20035;-79
2022/03/28 09:49:52;;;;;;;10.57;8.05;;;13.90;99.90;;;;;;4932606;29;20518;-79
2022/03/28 09:52:21;;;;;;;10.70;8.63;;;14.10;99.90;;;;;;4952933;29;20031;-79
2022/03/28 09:54:55;;;;;;;9.75;7.72;;;14.20;99.90;;;;;;4927530;29;20031;-79
2022/03/28 09:57:25;;;;;;;13.82;8.35;;;14.20;99.90;;;;;;4948117;29;20051;-82
2022/03/28 09:59:53;;;;;;;11.93;8.07;;;14.30;99.90;;;;;;4943263;29;20454;-80
2022/03/28 10:02:25;;;;;;;9.38;7.45;;;14.50;99.90;;;;;;4927998;28;20039;-83
2022/03/28 10:04:54;;;;;;;10.32;8.60;;;14.60;99.90;;;;;;4955754;29;20035;-80
2022/03/28 10:07:22;;;;;;;11.23;8.60;;;14.80;99.90;;;;;;4954661;28;20042;-81
2022/03/28 10:09:56;;;;;;;11.85;8.50;;;14.90;99.90;;;;;;4931710;29;20560;-82
2022/03/28 10:12:24;;;;;;;15.93;9.90;;;15.00;99.90;;;;;;4960309;28;20051;-79
2022/03/28 10:14:54;;;;;;;12.88;8.88;;;15.10;99.90;;;;;;4954324;28;20039;-80
2022/03/28 10:17:20;;;;;;;11.38;8.68;;;15.10;99.70;;;;;;4955336;29;20031;-79
2022/03/28 10:19:47;;;;;;;10.00;7.85;;;15.10;99.90;;;;;;4956602;29;20046;-80
2022/03/28 10:22:22;;;;;;;12.07;9.18;;;15.30;99.90;;;;;;4945569;29;20044;-81
2022/03/28 10:24:57;;;;;;;12.20;8.27;;;15.40;99.70;;;;;;4951850;28;20582;-80
2022/03/28 10:27:24;;;;;;;10.45;7.57;;;15.60;99.90;;;;;;4920411;29;20467;-80
2022/03/28 10:29:54;;;;;;;10.43;8.02;;;15.80;99.90;;;;;;4957504;28;20351;-81
2022/03/28 10:32:21;;;;;;;11.95;8.25;;;16.00;98.90;;;;;;4953952;28;20034;-80
2022/03/28 10:34:53;;;;;;;11.50;8.25;;;16.10;98.10;;;;;;4909767;29;20039;-80
2022/03/28 10:37:25;;;;;;;11.77;7.47;;;16.20;98.30;;;;;;4954498;28;20463;-81
2022/03/28 10:40:12;;;;;;;12.45;7.85;;;16.40;98.60;;;;;;4932609;28;20407;-81
2022/03/28 10:43:02;;;;;;;9.07;6.93;;;16.80;97.50;;;;;;4945563;29;20517;-85
2022/03/28 10:45:38;;;;;;;9.82;7.45;;;17.00;97.40;;;;;;4953448;29;20478;-81
2022/03/28 10:48:07;;;;;;;11.82;7.60;;;17.30;96.70;;;;;;4947406;29;20497;-83
2022/03/28 10:50:33;;;;;;;11.15;8.55;;;17.60;95.90;;;;;;4954211;29;20038;-81
2022/03/28 10:53:15;;;;;;;10.15;7.65;;;17.80;94.50;;;;;;4953872;29;20031;-81
2022/03/28 10:55:46;;;;;;;8.17;7.23;;;18.00;94.80;;;;;;4953868;29;20039;-81
2022/03/28 10:58:25;;;;;;;10.95;8.70;;;18.30;94.30;;;;;;4934756;29;20496;-79
2022/03/28 11:01:12;;;;;;;10.98;7.93;;;18.60;92.60;;;;;;4935175;29;20036;-79
2022/03/28 11:03:51;;;;;;;10.00;8.07;;;18.70;92.10;;;;;;4905715;29;20518;-79
2022/03/28 11:06:37;;;;;;;10.90;7.93;;;18.90;92.00;;;;;;4918762;29;20109;-79
2022/03/28 11:09:03;;;;;;;8.63;7.30;;;19.10;90.60;;;;;;4894902;29;20553;-79
2022/03/28 11:11:32;;;;;;;10.05;7.28;;;19.20;90.70;;;;;;4934999;29;20507;-78
2022/03/28 11:14:10;;;;;;;10.25;8.07;;;19.50;90.50;;;;;;4921361;29;20055;-79
2022/03/28 11:16:52;;;;;;;10.10;8.10;;;19.90;88.90;;;;;;4908076;29;20376;-79
2022/03/28 11:19:22;;;;;;;14.02;8.93;;;20.10;85.90;;;;;;4935183;29;20040;-79
2022/03/28 11:22:04;;;;;;;9.82;7.50;;;20.20;83.70;;;;;;4918236;29;20044;-79
2022/03/28 11:24:58;;;;;;;10.68;8.40;;;20.10;84.00;;;;;;4924550;29;20039;-79
2022/03/28 11:27:31;;;;;;;9.18;7.80;;;20.40;82.80;;;;;;4923335;29;20043;-79
2022/03/28 11:30:10;;;;;;;12.13;8.50;;;20.60;81.70;;;;;;4936650;29;20059;-78
2022/03/28 11:32:37;;;;;;;11.68;7.43;;;20.80;80.60;;;;;;4925338;29;20044;-78
2022/03/28 11:35:09;;;;;;;10.88;8.05;;;21.10;79.90;;;;;;4934374;29;20032;-79
2022/03/28 11:37:40;;;;;;;14.35;8.63;;;21.40;78.70;;;;;;4924837;29;20043;-79
2022/03/28 11:40:08;;;;;;;10.32;8.13;;;21.60;76.90;;;;;;4924200;29;20050;-81
2022/03/28 11:42:37;;;;;;;9.98;7.82;;;21.80;76.20;;;;;;4937328;29;20497;-81
2022/03/28 11:45:12;;;;;;;12.48;8.35;;;21.90;74.40;;;;;;4902064;29;20040;-80
2022/03/28 11:47:53;;;;;;;10.57;7.30;;;22.00;74.60;;;;;;4904567;29;20051;-80
2022/03/28 11:50:21;;;;;;;12.00;8.48;;;22.30;73.90;;;;;;4927827;29;20368;-81
2022/03/28 11:52:54;;;;;;;11.77;9.10;;;22.60;72.70;;;;;;4918537;29;20395;-82
2022/03/28 11:55:29;;;;;;;9.38;7.45;;;22.90;71.30;;;;;;4923531;29;20595;-82
2022/03/28 11:58:17;;;;;;;10.90;7.38;;;22.80;70.20;;;;;;4949367;28;20044;-84
2022/03/28 12:00:45;;;;;;;10.80;7.28;;;22.90;70.00;;;;;;4933414;28;20047;-80
2022/03/28 12:03:20;;;;;;;10.90;8.00;;;23.00;69.50;;;;;;4940372;28;20031;-81
2022/03/28 12:05:48;;;;;;;22.13;18.08;;;23.40;69.30;;;;;;4913058;28;21465;-80
2022/03/28 12:08:18;;;;;;;10.85;9.27;;;23.60;68.30;;;;;;4948817;28;20039;-81
2022/03/28 12:10:49;;;;;;;;;;;23.80;66.80;;;;;;4937772;29;20039;-81
2022/03/28 12:13:25;;;;;;;11.65;7.90;;;24.00;66.20;;;;;;4944190;28;19925;-80
2022/03/28 12:16:10;;;;;;;11.10;8.50;;;24.30;65.90;;;;;;4946049;28;20055;-80
2022/03/28 12:18:39;;;;;;;9.82;7.57;;;24.70;63.60;;;;;;4951261;28;20464;-80
2022/03/28 12:21:08;;;;;;;12.25;7.90;;;24.80;63.00;;;;;;4952624;28;20050;-80
2022/03/28 12:23:40;;;;;;;14.32;10.25;;;25.00;62.60;;;;;;4938071;28;20050;-80
2022/03/28 12:26:11;;;;;;;12.18;8.75;;;25.30;61.50;;;;;;4924393;29;20043;-80
2022/03/28 12:28:46;;;;;;;13.07;8.40;;;25.30;60.00;;;;;;4929232;29;20047;-81
2022/03/28 12:31:14;;;;;;;11.45;8.90;;;25.10;59.70;;;;;;4960793;28;20406;-81
2022/03/28 12:33:43;;;;;;;12.05;8.27;;;25.30;59.60;;;;;;4937163;28;20047;-81
2022/03/28 12:36:24;;;;;;;13.68;8.82;;;25.30;58.80;;;;;;4956856;28;20047;-81
2022/03/28 12:38:59;;;;;;;13.77;8.55;;;25.40;58.70;;;;;;4945899;28;20031;-81
2022/03/28 12:41:27;;;;;;;13.52;9.07;;;25.60;58.20;;;;;;4937118;29;20034;-81
2022/03/28 12:43:54;;;;;;;16.48;10.35;;;25.80;57.00;;;;;;4936910;28;20042;-81
2022/03/28 12:46:23;;;;;;;12.98;8.88;;;25.60;56.20;;;;;;4935874;28;20039;-81
2022/03/28 12:48:54;;;;;;;14.30;8.88;;;25.50;56.40;;;;;;4945227;29;20376;-81
2022/03/28 12:51:28;;;;;;;12.37;8.47;;;25.50;56.40;;;;;;4949526;28;20036;-80
2022/03/28 12:54:05;;;;;;;16.50;9.05;;;25.60;56.50;;;;;;4925268;28;20626;-80
2022/03/28 12:56:54;;;;;;;13.63;9.63;;;25.70;56.20;;;;;;4933122;29;20483;-81